createdAt,value
2023-01-29T00:02:42.607Z,-1.8
2023-01-29T00:12:43.238Z,-1.7
2023-01-29T00:32:44.370Z,-2
2023-01-29T00:42:45.164Z,-1.8
2023-01-29T00:52:46.108Z,-2
2023-01-29T01:02:46.964Z,-1.9
2023-01-29T01:22:48.300Z,-2
2023-01-29T01:32:48.362Z,-1.9
2023-01-29T01:42:49.429Z,-1.8
2023-01-29T01:52:50.207Z,-1.7
2023-01-29T02:02:51.080Z,-1.7
2023-01-29T02:12:51.517Z,-1.8
2023-01-29T02:22:51.779Z,-1.8
2023-01-29T02:32:52.378Z,-1.9
2023-01-29T02:42:53.357Z,-2.1
2023-01-29T02:52:53.372Z,-1.8
2023-01-29T03:02:53.980Z,-1.8
2023-01-29T03:12:54.111Z,-1.7
2023-01-29T03:22:54.267Z,-1.6
2023-01-29T03:32:54.854Z,-1.5
2023-01-29T03:42:55.533Z,-1.5
2023-01-29T03:52:55.856Z,-1.9
2023-01-29T04:02:56.417Z,-1.8
2023-01-29T04:12:56.793Z,-1.7
2023-01-29T04:22:56.982Z,-1.7
2023-01-29T04:32:57.615Z,-1.7
2023-01-29T04:42:57.818Z,-1.4
2023-01-29T04:52:58.770Z,-1.3
2023-01-29T05:02:59.296Z,-1.1
2023-01-29T05:13:00.208Z,-0.9
2023-01-29T05:33:01.114Z,-0.9
2023-01-29T05:53:01.857Z,-0.8
2023-01-29T06:23:02.596Z,-0.6
2023-01-29T06:43:04.176Z,-0.6
2023-01-29T07:03:05.486Z,-0.4
2023-01-29T07:13:06.437Z,-0.3
2023-01-29T07:23:07.164Z,-0.2
2023-01-29T07:33:07.689Z,-0.2
2023-01-29T07:43:08.429Z,-0.2
2023-01-29T07:53:09.157Z,-0.1
2023-01-29T08:03:09.539Z,0
2023-01-29T08:23:11.107Z,0.1
2023-01-29T08:33:11.355Z,0.2
2023-01-29T08:43:11.757Z,0.2
2023-01-29T08:53:12.722Z,0.3
2023-01-29T09:03:13.124Z,0.3
2023-01-29T09:13:13.752Z,0.3
2023-01-29T09:23:14.174Z,0.4
2023-01-29T09:33:14.589Z,0.5
2023-01-29T09:43:15.319Z,0.6
2023-01-29T10:03:16.368Z,0.8
2023-01-29T10:13:17.264Z,1
2023-01-29T10:23:17.945Z,1.1
2023-01-29T10:33:24.564Z,1.1
2023-01-29T10:43:25.441Z,1.2
2023-01-29T10:53:26.238Z,1.2
2023-01-29T11:23:27.461Z,1.3
2023-01-29T11:33:27.908Z,1.5
2023-01-29T11:43:28.171Z,1.6
2023-01-29T11:53:28.533Z,1.5
2023-01-29T12:03:29.021Z,1.6
2023-01-29T12:13:29.458Z,1.7
2023-01-29T12:33:31.002Z,1.8
2023-01-29T12:43:31.415Z,1.9
2023-01-29T13:03:32.147Z,2
2023-01-29T13:13:33.015Z,1.9
2023-01-29T13:33:33.573Z,2
2023-01-29T13:43:33.800Z,2.1
2023-01-29T14:23:35.907Z,2.1
2023-01-29T14:53:37.273Z,2.1
2023-01-29T15:03:37.662Z,2.2
2023-01-29T15:13:37.729Z,2.2
2023-01-29T15:23:38.717Z,2.2
2023-01-29T15:33:39.456Z,2.3
2023-01-29T15:53:41.114Z,2.4
2023-01-29T16:13:42.911Z,2.3
2023-01-29T16:33:43.622Z,2.3
2023-01-29T16:43:44.678Z,2.2
2023-01-29T16:53:45.457Z,2.3
2023-01-29T17:03:46.373Z,2.3
2023-01-29T17:23:47.712Z,2.4
2023-01-29T17:33:47.918Z,2.4
2023-01-29T17:43:48.903Z,2.5
2023-01-29T17:53:49.212Z,2.6
2023-01-29T18:13:50.903Z,2.6
2023-01-29T18:53:53.344Z,2.4
2023-01-29T19:03:53.683Z,2.4
2023-01-29T19:13:54.081Z,2.1
2023-01-29T19:23:54.474Z,2.1
2023-01-29T19:33:54.791Z,2.2
2023-01-29T19:43:55.766Z,2.3
2023-01-29T19:53:56.086Z,2.4
2023-01-29T20:23:56.906Z,2.5
2023-01-29T20:53:59.536Z,2.7
2023-01-29T21:04:00.341Z,2.7
2023-01-29T21:14:00.477Z,2.7
2023-01-29T21:24:01.174Z,2.6
2023-01-29T21:34:01.734Z,2.8
2023-01-29T21:44:01.806Z,2.8
2023-01-29T21:54:02.002Z,2.8
2023-01-29T22:04:02.152Z,2.8
2023-01-29T22:14:02.541Z,2.8
2023-01-29T22:24:03.430Z,2.9
2023-01-29T22:44:04.016Z,3.1
2023-01-29T22:54:04.318Z,3.2
2023-01-29T23:14:05.283Z,3.2
2023-01-29T23:24:05.737Z,3.3
2023-01-29T23:54:06.785Z,3.5
